Time;durP1;ratioP1;P1;durP2;ratioP2;P2;SDS_P1;SDS_P2;PMS_P1;PMS_P2;Temp;Humidity;BMP_temperature;BMP_pressure;BME280_temperature;BME280_humidity;BME280_pressure;Samples;Min_cycle;Max_cycle;Signal;HPM_P1;HPM_P2
2022/08/21 00:00:06;;;;;;;8.60;6.80;;;19.70;99.90;;;;;;5237392;28;20254;-49
2022/08/21 00:02:37;;;;;;;7.67;6.30;;;19.70;99.90;;;;;;5228297;28;20213;-47
2022/08/21 00:05:07;;;;;;;9.70;5.83;;;19.70;99.90;;;;;;5256193;28;20437;-47
2022/08/21 00:07:38;;;;;;;8.40;6.50;;;19.60;99.90;;;;;;5243925;28;20655;-48
2022/08/21 00:10:10;;;;;;;6.80;5.70;;;19.60;99.90;;;;;;5245275;28;20914;-47
2022/08/21 00:12:41;;;;;;;9.77;6.53;;;19.50;99.90;;;;;;5238468;28;20199;-49
2022/08/21 00:15:18;;;;;;;6.47;5.83;;;19.50;99.90;;;;;;5225973;28;20524;-46
2022/08/21 00:17:48;;;;;;;9.10;5.77;;;19.50;99.90;;;;;;5250309;28;20467;-46
2022/08/21 00:20:20;;;;;;;13.13;9.87;;;19.50;99.90;;;;;;5231523;28;20482;-47
2022/08/21 00:22:51;;;;;;;14.43;9.60;;;19.50;99.90;;;;;;5250519;28;20643;-46
2022/08/21 00:25:22;;;;;;;10.40;6.97;;;19.50;99.90;;;;;;5239106;28;20428;-48
2022/08/21 00:27:54;;;;;;;9.57;5.50;;;19.50;99.90;;;;;;5212806;28;20828;-46
2022/08/21 00:30:26;;;;;;;8.00;7.13;;;19.50;99.90;;;;;;5232173;28;20433;-47
2022/08/21 00:32:57;;;;;;;5.93;5.43;;;19.50;99.90;;;;;;5231044;28;20530;-47
2022/08/21 00:35:35;;;;;;;7.40;6.70;;;19.50;99.90;;;;;;5228837;28;20437;-48
2022/08/21 00:38:08;;;;;;;7.27;5.63;;;19.50;99.90;;;;;;5228266;28;20493;-48
2022/08/21 00:40:50;;;;;;;18.10;11.23;;;19.40;99.90;;;;;;5246047;28;20526;-50
2022/08/21 00:43:34;;;;;;;16.13;5.97;;;19.40;99.90;;;;;;5241155;28;20476;-47
2022/08/21 00:46:05;;;;;;;13.10;11.17;;;19.30;99.90;;;;;;5231854;28;20604;-46
2022/08/21 00:48:36;;;;;;;19.77;10.43;;;19.30;99.90;;;;;;5225378;28;21048;-48
2022/08/21 00:51:09;;;;;;;18.77;11.77;;;19.30;99.90;;;;;;5225905;28;20424;-45
2022/08/21 00:53:44;;;;;;;7.83;6.97;;;19.30;99.90;;;;;;5247098;28;20223;-47
2022/08/21 00:56:15;;;;;;;9.13;6.50;;;19.40;99.90;;;;;;5227047;28;20520;-47
2022/08/21 00:58:47;;;;;;;8.67;7.77;;;19.40;99.90;;;;;;5231753;28;20513;-47
2022/08/21 01:01:18;;;;;;;9.83;8.47;;;19.50;99.90;;;;;;5226683;28;20186;-46
2022/08/21 01:03:49;;;;;;;8.67;6.63;;;19.50;99.90;;;;;;5252137;28;20592;-46
2022/08/21 01:06:20;;;;;;;7.33;6.63;;;19.50;99.90;;;;;;5218887;28;20189;-48
2022/08/21 01:08:50;;;;;;;5.60;5.10;;;19.50;99.90;;;;;;5223626;28;20960;-49
2022/08/21 01:11:21;;;;;;;6.27;4.93;;;19.50;99.90;;;;;;5230627;28;20175;-46
2022/08/21 01:13:52;;;;;;;6.57;6.00;;;19.50;99.90;;;;;;5240633;28;20189;-45
2022/08/21 01:16:26;;;;;;;7.63;6.10;;;19.40;99.90;;;;;;5241138;28;20182;-48
2022/08/21 01:18:56;;;;;;;6.70;6.00;;;19.40;99.90;;;;;;5242805;28;20464;-47
2022/08/21 01:21:28;;;;;;;9.80;6.10;;;19.30;99.90;;;;;;5240592;28;20460;-47
2022/08/21 01:23:58;;;;;;;7.40;6.70;;;19.20;99.90;;;;;;5232264;28;20698;-48
2022/08/21 01:26:34;;;;;;;7.50;6.70;;;19.10;99.90;;;;;;5239721;28;20464;-46
2022/08/21 01:29:26;;;;;;;8.33;5.87;;;19.20;99.90;;;;;;5249181;28;20209;-47
2022/08/21 01:31:58;;;;;;;8.97;6.40;;;19.10;99.90;;;;;;5237108;28;20449;-50
2022/08/21 01:34:29;;;;;;;7.13;6.40;;;19.20;99.90;;;;;;5239517;28;20560;-47
2022/08/21 01:36:59;;;;;;;4.87;4.50;;;19.10;99.90;;;;;;5218567;28;20889;-47
2022/08/21 01:39:31;;;;;;;7.00;5.90;;;19.00;99.90;;;;;;5245278;28;20174;-47
2022/08/21 01:42:02;;;;;;;11.53;6.73;;;19.00;99.90;;;;;;5239080;28;20671;-49
2022/08/21 01:44:33;;;;;;;6.20;5.60;;;19.00;99.90;;;;;;5215527;28;20456;-48
2022/08/21 01:47:07;;;;;;;7.43;6.63;;;18.90;99.90;;;;;;5223006;28;20437;-47
2022/08/21 01:49:38;;;;;;;5.70;5.13;;;18.90;99.90;;;;;;5222665;28;20177;-47
2022/08/21 01:52:09;;;;;;;8.83;6.57;;;18.80;99.90;;;;;;5238199;28;20457;-46
2022/08/21 01:54:41;;;;;;;5.13;4.83;;;18.80;99.90;;;;;;5237873;28;20432;-47
2022/08/21 01:57:13;;;;;;;6.53;5.17;;;18.80;99.90;;;;;;5242486;28;20437;-47
2022/08/21 01:59:43;;;;;;;6.20;4.43;;;18.70;99.90;;;;;;5219856;28;20521;-46
2022/08/21 02:02:14;;;;;;;12.73;5.20;;;18.70;99.90;;;;;;5229395;28;20555;-48
2022/08/21 02:04:45;;;;;;;7.13;5.77;;;18.70;99.90;;;;;;5243599;28;20257;-47
2022/08/21 02:07:15;;;;;;;13.60;6.00;;;18.60;99.90;;;;;;5206804;28;20194;-47
2022/08/21 02:09:46;;;;;;;10.27;5.30;;;18.50;99.90;;;;;;5221089;28;20217;-48
2022/08/21 02:12:17;;;;;;;12.23;4.90;;;18.50;99.90;;;;;;5235645;28;20198;-45
2022/08/21 02:14:47;;;;;;;7.70;4.57;;;18.50;99.90;;;;;;5228126;28;20592;-45
2022/08/21 02:17:18;;;;;;;5.73;5.23;;;18.40;99.90;;;;;;5242723;28;20594;-46
2022/08/21 02:19:49;;;;;;;5.33;4.80;;;18.40;99.90;;;;;;5204873;28;20229;-46
2022/08/21 02:22:20;;;;;;;7.43;4.50;;;18.40;99.90;;;;;;5240339;28;20498;-46
2022/08/21 02:24:50;;;;;;;4.47;4.10;;;18.30;99.90;;;;;;5227954;28;20178;-46
2022/08/21 02:27:23;;;;;;;4.53;4.13;;;18.30;99.90;;;;;;5236781;28;20194;-47
2022/08/21 02:29:57;;;;;;;9.27;6.10;;;18.30;99.90;;;;;;5224772;28;20178;-47
2022/08/21 02:32:28;;;;;;;7.33;4.93;;;18.30;99.90;;;;;;5242782;28;20464;-48
2022/08/21 02:34:58;;;;;;;6.63;5.13;;;18.30;99.90;;;;;;5223640;28;20855;-46
2022/08/21 02:37:29;;;;;;;7.17;4.93;;;18.30;99.90;;;;;;5236113;28;20182;-48
2022/08/21 02:40:01;;;;;;;8.50;5.47;;;18.20;99.90;;;;;;5234455;28;20210;-45
2022/08/21 02:42:31;;;;;;;7.70;5.40;;;18.20;99.90;;;;;;5240054;28;20194;-47
2022/08/21 02:45:03;;;;;;;3.97;3.60;;;18.20;99.90;;;;;;5238420;28;20464;-51
2022/08/21 02:47:34;;;;;;;3.63;3.43;;;18.20;99.90;;;;;;5228674;28;20280;-45
2022/08/21 02:50:07;;;;;;;11.33;4.60;;;18.20;99.90;;;;;;5235977;28;20920;-48
2022/08/21 02:52:37;;;;;;;3.97;3.53;;;18.20;99.90;;;;;;5244465;28;20205;-47
2022/08/21 02:55:08;;;;;;;7.40;3.90;;;18.10;99.90;;;;;;5236321;28;20446;-48
2022/08/21 02:57:39;;;;;;;5.60;3.10;;;18.10;99.90;;;;;;5220011;28;20269;-46
2022/08/21 03:00:11;;;;;;;4.03;3.73;;;18.10;99.90;;;;;;5217965;28;20183;-46
2022/08/21 03:02:42;;;;;;;6.13;3.50;;;18.10;99.90;;;;;;5242041;28;20205;-47
2022/08/21 03:05:14;;;;;;;10.53;4.17;;;18.10;99.90;;;;;;5242927;28;20439;-48
2022/08/21 03:07:46;;;;;;;5.07;3.90;;;18.10;99.90;;;;;;5223272;28;20495;-45
2022/08/21 03:10:19;;;;;;;3.03;2.83;;;18.00;99.90;;;;;;5245626;28;20432;-47
2022/08/21 03:12:50;;;;;;;8.50;3.77;;;18.00;99.90;;;;;;5219896;28;20457;-47
2022/08/21 03:15:23;;;;;;;3.50;3.10;;;18.00;99.90;;;;;;5235558;28;20546;-46
2022/08/21 03:17:54;;;;;;;4.10;2.97;;;18.00;99.90;;;;;;5242898;28;20175;-45
2022/08/21 03:20:28;;;;;;;8.70;3.47;;;17.90;99.90;;;;;;5237587;28;20806;-46
2022/08/21 03:22:59;;;;;;;3.50;2.57;;;17.90;99.90;;;;;;5235048;28;20227;-47
2022/08/21 03:25:33;;;;;;;4.93;3.10;;;17.90;99.90;;;;;;5233892;28;20442;-52
2022/08/21 03:28:06;;;;;;;5.53;2.60;;;17.80;99.90;;;;;;5235960;28;20485;-49
2022/08/21 03:30:37;;;;;;;4.13;3.67;;;17.80;99.90;;;;;;5237614;28;20436;-50
2022/08/21 03:33:07;;;;;;;3.70;3.50;;;17.80;99.90;;;;;;5237639;28;20478;-49
2022/08/21 03:35:38;;;;;;;9.40;3.17;;;17.70;99.90;;;;;;5238297;28;20215;-51
2022/08/21 03:38:09;;;;;;;6.00;3.37;;;17.70;99.90;;;;;;5217988;28;20210;-49
2022/08/21 03:40:41;;;;;;;11.80;5.90;;;17.70;99.90;;;;;;5241313;28;20182;-48
2022/08/21 03:43:12;;;;;;;8.20;5.20;;;17.60;99.90;;;;;;5239977;28;20199;-51
2022/08/21 03:45:43;;;;;;;4.60;4.30;;;17.60;99.90;;;;;;5224060;28;20467;-50
2022/08/21 03:48:14;;;;;;;3.13;2.87;;;17.70;99.90;;;;;;5231210;28;20190;-49
2022/08/21 03:50:47;;;;;;;4.13;3.33;;;17.70;99.90;;;;;;5231784;28;20794;-50
2022/08/21 03:53:17;;;;;;;5.03;4.60;;;17.70;99.90;;;;;;5223904;28;20722;-47
2022/08/21 03:55:50;;;;;;;4.37;3.40;;;17.70;99.90;;;;;;5243797;28;20528;-50
2022/08/21 03:58:23;;;;;;;3.40;3.07;;;17.70;99.90;;;;;;5223688;28;20602;-50
2022/08/21 04:00:57;;;;;;;5.13;3.97;;;17.70;99.90;;;;;;5235125;28;20430;-51
2022/08/21 04:03:28;;;;;;;4.70;3.33;;;17.60;99.90;;;;;;5218838;28;20453;-50
2022/08/21 04:05:59;;;;;;;6.87;3.80;;;17.60;99.90;;;;;;5224105;28;20515;-49
2022/08/21 04:08:30;;;;;;;10.10;3.90;;;17.70;99.90;;;;;;5229498;28;20562;-52
2022/08/21 04:11:01;;;;;;;3.17;2.37;;;17.60;99.90;;;;;;5214029;28;20221;-50
2022/08/21 04:13:31;;;;;;;4.00;3.10;;;17.60;99.90;;;;;;5241605;28;20522;-50
2022/08/21 04:16:03;;;;;;;3.83;2.53;;;17.50;99.90;;;;;;5210231;28;20428;-51
2022/08/21 04:18:34;;;;;;;2.90;2.70;;;17.50;99.90;;;;;;5244005;28;20257;-52
2022/08/21 04:21:05;;;;;;;8.87;3.03;;;17.50;99.90;;;;;;5225736;28;20536;-52
2022/08/21 04:23:37;;;;;;;4.30;2.50;;;17.50;99.90;;;;;;5221182;28;20704;-51
2022/08/21 04:26:08;;;;;;;4.90;2.63;;;17.60;99.90;;;;;;5231329;28;20520;-50
2022/08/21 04:28:38;;;;;;;3.80;2.10;;;17.60;99.90;;;;;;5223302;28;20554;-51
2022/08/21 04:31:09;;;;;;;4.07;2.37;;;17.50;99.90;;;;;;5237148;28;20190;-50
2022/08/21 04:33:39;;;;;;;5.13;2.87;;;17.50;99.90;;;;;;5239976;28;20183;-50
2022/08/21 04:36:11;;;;;;;12.20;3.10;;;17.60;99.90;;;;;;5238613;28;20193;-51
2022/08/21 04:38:41;;;;;;;7.10;3.30;;;17.60;99.90;;;;;;5246068;28;20255;-50
2022/08/21 04:41:12;;;;;;;6.47;2.93;;;17.50;99.90;;;;;;5205906;28;20437;-49
2022/08/21 04:43:42;;;;;;;5.70;2.57;;;17.50;99.90;;;;;;5220292;28;20183;-49
2022/08/21 04:46:13;;;;;;;11.77;2.80;;;17.60;99.90;;;;;;5227640;28;20285;-50
2022/08/21 04:48:44;;;;;;;4.83;2.30;;;17.60;99.90;;;;;;5241924;28;20209;-51
2022/08/21 04:51:23;;;;;;;3.13;2.40;;;17.70;99.90;;;;;;5227970;28;20175;-51
2022/08/21 04:54:16;;;;;;;2.60;2.37;;;17.60;99.90;;;;;;5240720;28;20174;-50
2022/08/21 04:56:59;;;;;;;6.27;2.30;;;17.70;99.90;;;;;;5242133;28;20570;-50
2022/08/21 04:59:36;;;;;;;4.43;2.27;;;17.70;99.90;;;;;;5204970;28;20432;-47
2022/08/21 05:02:08;;;;;;;4.90;2.60;;;17.80;99.90;;;;;;5210076;28;20472;-50
2022/08/21 05:04:44;;;;;;;3.30;1.70;;;17.80;99.90;;;;;;5226718;28;20433;-49
2022/08/21 05:07:19;;;;;;;7.27;2.53;;;17.80;99.90;;;;;;5235973;28;20470;-49
2022/08/21 05:09:50;;;;;;;2.73;2.47;;;17.90;99.90;;;;;;5239894;28;20510;-51
2022/08/21 05:12:21;;;;;;;3.63;2.40;;;17.90;99.90;;;;;;5222695;28;20950;-50
2022/08/21 05:14:52;;;;;;;2.73;2.23;;;17.90;99.90;;;;;;5226463;28;20483;-51
2022/08/21 05:17:23;;;;;;;3.57;2.80;;;18.00;99.90;;;;;;5224174;28;20476;-50
2022/08/21 05:19:54;;;;;;;2.70;2.53;;;18.00;99.90;;;;;;5244057;28;20190;-49
2022/08/21 05:22:25;;;;;;;6.40;2.70;;;18.10;99.90;;;;;;5226274;28;20217;-50
2022/08/21 05:24:57;;;;;;;4.20;2.30;;;18.10;99.90;;;;;;5226813;28;20448;-50
2022/08/21 05:27:29;;;;;;;5.80;2.10;;;18.20;99.90;;;;;;5227978;28;20539;-50
2022/08/21 05:30:00;;;;;;;4.20;2.60;;;18.10;99.90;;;;;;5224663;28;20444;-50
2022/08/21 05:32:30;;;;;;;2.33;1.70;;;18.10;99.90;;;;;;5244685;28;20792;-50
2022/08/21 05:35:02;;;;;;;5.57;2.37;;;18.00;99.90;;;;;;5233846;28;20187;-51
2022/08/21 05:37:34;;;;;;;4.63;3.27;;;18.10;99.90;;;;;;5238544;28;20179;-51
2022/08/21 05:40:06;;;;;;;17.67;2.47;;;18.20;99.90;;;;;;5237584;28;20468;-48
2022/08/21 05:42:37;;;;;;;1.90;1.80;;;18.20;99.90;;;;;;5241600;28;20456;-51
2022/08/21 05:45:08;;;;;;;8.23;2.47;;;18.20;99.90;;;;;;5219509;28;20948;-49
2022/08/21 05:47:39;;;;;;;4.50;2.40;;;18.40;99.90;;;;;;5242838;28;20256;-48
2022/08/21 05:50:10;;;;;;;6.53;2.50;;;18.40;99.90;;;;;;5240759;28;20305;-51
2022/08/21 05:52:40;;;;;;;3.13;2.67;;;18.50;99.90;;;;;;5230456;28;20456;-50
2022/08/21 05:55:11;;;;;;;8.57;1.93;;;18.40;99.90;;;;;;5225492;28;20467;-49
2022/08/21 05:57:42;;;;;;;6.83;2.07;;;18.30;99.90;;;;;;5243563;28;20268;-51
2022/08/21 06:00:13;;;;;;;2.20;2.10;;;18.40;99.90;;;;;;5242735;28;20207;-51
2022/08/21 06:02:44;;;;;;;2.80;2.20;;;18.50;99.90;;;;;;5241736;28;20225;-51
2022/08/21 06:05:14;;;;;;;2.97;1.70;;;18.60;99.90;;;;;;5205312;28;20437;-51
2022/08/21 06:07:45;;;;;;;1.80;1.70;;;18.60;99.90;;;;;;5239048;28;20230;-51
2022/08/21 06:10:18;;;;;;;2.27;1.87;;;18.70;99.90;;;;;;5225234;28;20197;-50
2022/08/21 06:12:54;;;;;;;4.23;2.53;;;18.80;99.90;;;;;;5224816;28;20198;-49
2022/08/21 06:15:25;;;;;;;2.83;1.97;;;18.80;99.90;;;;;;5223597;28;20428;-51
2022/08/21 06:17:56;;;;;;;6.07;2.00;;;18.90;99.90;;;;;;5243066;28;21022;-51
2022/08/21 06:20:26;;;;;;;7.37;3.00;;;18.90;99.90;;;;;;5242492;28;20492;-49
2022/08/21 06:22:57;;;;;;;2.10;1.57;;;18.90;99.90;;;;;;5238016;28;20226;-50
2022/08/21 06:25:29;;;;;;;5.13;1.97;;;19.00;99.90;;;;;;5237146;28;20175;-50
2022/08/21 06:28:05;;;;;;;5.77;2.20;;;19.20;99.90;;;;;;5238381;28;20202;-50
2022/08/21 06:30:38;;;;;;;4.20;2.20;;;19.30;99.90;;;;;;5219942;28;20436;-51
2022/08/21 06:33:08;;;;;;;5.50;2.10;;;19.60;99.90;;;;;;5240789;28;20542;-49
2022/08/21 06:35:39;;;;;;;3.40;1.97;;;19.60;99.90;;;;;;5242600;28;20520;-50
2022/08/21 06:38:10;;;;;;;5.23;2.30;;;19.70;99.90;;;;;;5208008;28;20190;-50
2022/08/21 06:40:41;;;;;;;5.17;2.33;;;19.90;99.90;;;;;;5217593;28;20276;-49
2022/08/21 06:43:16;;;;;;;2.90;2.17;;;20.10;99.90;;;;;;5234287;28;20214;-51
2022/08/21 06:45:47;;;;;;;6.10;2.07;;;20.20;99.90;;;;;;5219894;28;20436;-51
2022/08/21 06:48:17;;;;;;;3.60;1.73;;;20.20;99.90;;;;;;5210314;28;20461;-50
2022/08/21 06:50:48;;;;;;;4.37;1.77;;;20.40;99.90;;;;;;5241466;28;20705;-49
2022/08/21 06:53:20;;;;;;;5.90;2.47;;;20.60;99.90;;;;;;5218865;28;20205;-51
2022/08/21 06:55:51;;;;;;;1.83;1.60;;;20.80;99.90;;;;;;5237065;28;20182;-52
2022/08/21 06:58:21;;;;;;;6.40;2.60;;;21.10;99.90;;;;;;5222799;28;20811;-49
2022/08/21 07:00:52;;;;;;;4.90;1.63;;;21.40;99.90;;;;;;5219784;28;20579;-51
2022/08/21 07:03:39;;;;;;;5.70;1.90;;;21.60;99.90;;;;;;5219142;28;21118;-50
2022/08/21 07:06:11;;;;;;;2.97;2.00;;;21.70;99.90;;;;;;5244030;28;20317;-51
2022/08/21 07:08:41;;;;;;;3.43;1.80;;;21.80;99.90;;;;;;5219501;28;20436;-49
2022/08/21 07:11:19;;;;;;;2.67;2.30;;;22.30;99.90;;;;;;5243998;28;20451;-50
2022/08/21 07:13:52;;;;;;;5.80;2.27;;;22.70;99.90;;;;;;5233521;28;20185;-51
2022/08/21 07:16:23;;;;;;;2.23;2.03;;;23.20;99.90;;;;;;5232822;28;20430;-51
2022/08/21 07:18:54;;;;;;;4.80;2.97;;;23.70;99.90;;;;;;5238348;28;20959;-51
2022/08/21 07:21:24;;;;;;;4.20;1.70;;;23.70;99.90;;;;;;5238253;28;20470;-49
2022/08/21 07:23:55;;;;;;;2.13;1.33;;;24.10;99.80;;;;;;5240876;28;20194;-47
2022/08/21 07:26:26;;;;;;;11.63;3.53;;;24.70;97.00;;;;;;5238455;28;20230;-50
2022/08/21 07:28:56;;;;;;;2.20;1.47;;;25.10;91.60;;;;;;5222772;28;20339;-48
2022/08/21 07:31:28;;;;;;;6.90;1.70;;;24.90;87.60;;;;;;5235245;28;20588;-52
2022/08/21 07:33:58;;;;;;;7.50;1.40;;;24.20;88.00;;;;;;5218671;28;20258;-51
2022/08/21 07:36:29;;;;;;;4.03;1.73;;;24.30;90.30;;;;;;5223549;28;21028;-49
2022/08/21 07:39:00;;;;;;;1.20;1.10;;;24.80;87.80;;;;;;5220345;28;20521;-49
2022/08/21 07:41:31;;;;;;;5.40;1.63;;;25.00;80.60;;;;;;5221119;28;20281;-51
2022/08/21 07:44:02;;;;;;;1.80;1.30;;;25.10;80.30;;;;;;5230537;28;20186;-51
2022/08/21 07:46:33;;;;;;;3.13;1.97;;;25.40;77.30;;;;;;5225202;28;20438;-51
2022/08/21 07:49:04;;;;;;;4.30;1.30;;;25.40;72.70;;;;;;5245060;28;20464;-51
2022/08/21 07:51:35;;;;;;;15.03;1.63;;;25.00;69.40;;;;;;5221349;28;20702;-53
2022/08/21 07:54:06;;;;;;;1.40;1.30;;;24.30;72.40;;;;;;5240534;28;20468;-51
2022/08/21 07:56:36;;;;;;;2.67;1.10;;;23.80;73.70;;;;;;5241485;28;20548;-51
2022/08/21 07:59:07;;;;;;;2.00;1.33;;;23.50;74.40;;;;;;5228709;28;20186;-48
2022/08/21 08:01:38;;;;;;;4.20;1.37;;;23.60;75.10;;;;;;5246322;28;20197;-50
2022/08/21 08:04:08;;;;;;;4.63;1.80;;;23.80;75.70;;;;;;5234494;28;20186;-50
2022/08/21 08:06:39;;;;;;;2.37;1.63;;;24.10;73.10;;;;;;5240200;28;21148;-50
2022/08/21 08:09:10;;;;;;;4.90;1.50;;;24.60;71.50;;;;;;5241424;28;20202;-51
2022/08/21 08:11:43;;;;;;;2.10;1.40;;;24.80;69.10;;;;;;5236115;28;20710;-50
2022/08/21 08:14:15;;;;;;;1.23;1.20;;;24.80;69.10;;;;;;5229112;28;20185;-49
2022/08/21 08:16:45;;;;;;;3.47;2.40;;;25.00;67.00;;;;;;5219230;28;20429;-50
2022/08/21 08:19:16;;;;;;;6.40;1.47;;;25.10;64.70;;;;;;5225038;28;20435;-49
2022/08/21 08:21:47;;;;;;;2.13;2.00;;;25.00;64.00;;;;;;5246627;28;20236;-51
2022/08/21 08:24:17;;;;;;;5.80;2.53;;;25.50;63.80;;;;;;5231439;28;20183;-49
2022/08/21 08:26:48;;;;;;;9.40;1.57;;;25.80;61.30;;;;;;5235978;28;20190;-49
2022/08/21 08:29:18;;;;;;;3.03;1.30;;;25.90;59.30;;;;;;5223348;28;20217;-48
2022/08/21 08:31:49;;;;;;;3.93;1.20;;;26.20;58.10;;;;;;5240281;28;20201;-50
2022/08/21 08:34:21;;;;;;;2.30;1.57;;;26.70;57.50;;;;;;5230436;28;20630;-50
2022/08/21 08:36:52;;;;;;;3.33;1.60;;;27.10;56.70;;;;;;5220933;28;20221;-51
2022/08/21 08:39:22;;;;;;;2.03;1.40;;;27.40;54.30;;;;;;5223358;28;20533;-49
2022/08/21 08:42:13;;;;;;;1.73;1.47;;;27.80;54.10;;;;;;5226256;28;20207;-50
2022/08/21 08:44:45;;;;;;;15.10;2.13;;;27.10;53.50;;;;;;5235156;28;20198;-50
2022/08/21 08:47:17;;;;;;;2.83;2.40;;;26.50;55.40;;;;;;5234947;28;20737;-48
2022/08/21 08:50:15;;;;;;;2.80;2.60;;;26.50;56.00;;;;;;5245629;28;20468;-50
2022/08/21 08:52:52;;;;;;;2.27;1.63;;;26.00;56.30;;;;;;5229666;28;20449;-50
2022/08/21 08:55:35;;;;;;;3.13;1.27;;;25.90;57.10;;;;;;5230356;28;20940;-51
2022/08/21 08:58:06;;;;;;;1.87;1.40;;;25.50;56.80;;;;;;5253023;28;20427;-50
2022/08/21 09:00:38;;;;;;;1.63;1.53;;;24.80;57.70;;;;;;5227822;28;20437;-51
2022/08/21 09:03:09;;;;;;;3.83;1.70;;;24.50;58.20;;;;;;5222415;28;20433;-51
2022/08/21 09:05:47;;;;;;;6.83;5.13;;;23.90;58.90;;;;;;5238204;28;20532;-51
2022/08/21 09:08:42;;;;;;;2.57;1.87;;;23.60;59.40;;;;;;5235175;28;20673;-49
2022/08/21 09:11:36;;;;;;;5.40;2.97;;;23.60;60.40;;;;;;5243094;28;20558;-51
2022/08/21 09:14:37;;;;;;;2.20;2.10;;;23.20;61.00;;;;;;5246023;28;20427;-50
2022/08/21 09:17:27;;;;;;;5.77;1.70;;;23.20;62.50;;;;;;5234761;28;20486;-50
2022/08/21 09:20:07;;;;;;;5.53;1.57;;;23.50;62.10;;;;;;5238313;28;20456;-50
2022/08/21 09:22:43;;;;;;;7.10;1.60;;;23.40;61.70;;;;;;5266303;22;20824;-50
2022/08/21 09:25:23;;;;;;;3.60;1.67;;;23.50;62.00;;;;;;5284287;28;20553;-50
2022/08/21 09:27:54;;;;;;;8.60;5.00;;;23.40;61.30;;;;;;5284444;28;20463;-50
2022/08/21 09:30:32;;;;;;;7.30;2.87;;;23.30;62.40;;;;;;5283812;27;20923;-49
2022/08/21 09:33:03;;;;;;;11.37;3.47;;;23.30;62.90;;;;;;5293909;27;20203;-50
2022/08/21 09:35:35;;;;;;;9.10;2.40;;;23.40;61.20;;;;;;5284466;28;20428;-52
2022/08/21 09:38:07;;;;;;;1.93;1.57;;;23.10;61.90;;;;;;5286361;27;20257;-51
2022/08/21 09:40:46;;;;;;;4.20;2.03;;;23.10;61.80;;;;;;5292011;27;20438;-54
2022/08/21 09:43:20;;;;;;;3.10;1.70;;;23.10;62.80;;;;;;5290355;28;20458;-51
2022/08/21 09:46:22;;;;;;;7.03;2.20;;;23.40;63.80;;;;;;5287439;27;20435;-50
2022/08/21 09:48:56;;;;;;;3.80;1.57;;;23.60;61.00;;;;;;5289565;28;20463;-50
2022/08/21 09:51:32;;;;;;;1.70;1.60;;;23.30;60.70;;;;;;5287334;28;20449;-49
2022/08/21 09:54:08;;;;;;;4.60;2.30;;;23.30;61.80;;;;;;5291035;27;20438;-49
2022/08/21 10:00:16;;;;;;;2.20;2.00;;;23.70;61.50;;;;;;5277835;28;20484;-50
2022/08/21 10:02:46;;;;;;;3.23;1.87;;;24.00;60.00;;;;;;5292366;27;20446;-51
2022/08/21 10:05:24;;;;;;;9.90;1.90;;;24.20;59.50;;;;;;5291685;28;20545;-50
2022/08/21 10:07:54;;;;;;;1.17;1.07;;;24.40;59.20;;;;;;5290018;28;21636;-51
2022/08/21 10:10:37;;;;;;;2.87;1.57;;;24.70;57.80;;;;;;5284440;27;20485;-50
2022/08/21 10:13:57;;;;;;;7.00;3.70;;;24.80;56.20;;;;;;5273793;28;20201;-51
2022/08/21 10:16:46;;;;;;;9.87;2.00;;;24.70;56.40;;;;;;5270996;28;20431;-51
2022/08/21 10:19:36;;;;;;;4.20;1.90;;;24.30;56.90;;;;;;5284819;28;20461;-50
2022/08/21 10:22:17;;;;;;;1.70;1.60;;;24.10;57.40;;;;;;5291630;28;20824;-49
2022/08/21 10:25:05;;;;;;;7.10;1.90;;;24.20;57.40;;;;;;5290167;27;20987;-50
2022/08/21 10:27:54;;;;;;;4.40;1.83;;;24.50;57.60;;;;;;5287521;27;20868;-50
2022/08/21 10:30:51;;;;;;;12.67;1.77;;;24.60;57.70;;;;;;5286447;28;20572;-51
2022/08/21 10:33:41;;;;;;;1.97;1.60;;;24.80;57.90;;;;;;5266156;27;20446;-51
2022/08/21 10:36:30;;;;;;;5.60;1.90;;;24.80;55.60;;;;;;5286011;28;20487;-49
2022/08/21 10:39:20;;;;;;;3.63;1.73;;;24.70;55.30;;;;;;5291205;28;20529;-50
2022/08/21 10:42:19;;;;;;;5.70;3.20;;;24.50;55.50;;;;;;5290114;28;20496;-50
2022/08/21 10:44:58;;;;;;;4.20;2.57;;;24.40;55.40;;;;;;5281995;28;20457;-51
2022/08/21 10:47:52;;;;;;;5.70;1.83;;;24.40;56.10;;;;;;5278354;27;20430;-51
2022/08/21 10:50:33;;;;;;;3.20;2.90;;;24.70;54.80;;;;;;5275555;27;20461;-53
2022/08/21 10:53:22;;;;;;;1.53;1.30;;;25.00;54.60;;;;;;5287548;27;20511;-50
2022/08/21 10:56:24;;;;;;;1.57;1.47;;;25.00;54.60;;;;;;5290994;27;20525;-52
2022/08/21 10:59:12;;;;;;;5.90;2.07;;;25.00;54.30;;;;;;5278827;27;20437;-50
2022/08/21 11:01:52;;;;;;;5.47;2.70;;;24.90;53.80;;;;;;5282465;28;20442;-49
2022/08/21 11:04:40;;;;;;;4.60;2.70;;;25.10;54.30;;;;;;5286097;28;20430;-51
2022/08/21 11:07:19;;;;;;;3.70;3.37;;;25.10;53.60;;;;;;5282507;28;20439;-49
2022/08/21 11:09:55;;;;;;;4.73;1.60;;;25.10;52.20;;;;;;5285245;28;20427;-50
2022/08/21 11:12:35;;;;;;;1.80;1.60;;;25.10;52.20;;;;;;5286467;28;20434;-51
2022/08/21 11:15:24;;;;;;;2.03;1.93;;;25.10;51.30;;;;;;5289949;28;20422;-50
2022/08/21 11:18:25;;;;;;;3.07;1.83;;;25.40;50.00;;;;;;5285585;28;20452;-51
2022/08/21 11:21:30;;;;;;;3.20;2.53;;;25.50;49.30;;;;;;5287477;28;20907;-52
2022/08/21 11:24:32;;;;;;;7.63;3.03;;;25.40;49.30;;;;;;5287934;28;20545;-52
2022/08/21 11:27:14;;;;;;;2.90;2.17;;;25.40;49.90;;;;;;5287301;27;20434;-50
2022/08/21 11:29:50;;;;;;;2.70;1.50;;;25.30;50.10;;;;;;5287572;28;20461;-50
2022/08/21 11:32:42;;;;;;;1.60;1.00;;;25.30;49.50;;;;;;5280592;27;20531;-51
2022/08/21 11:35:43;;;;;;;6.03;3.00;;;25.40;48.60;;;;;;5290083;27;20430;-52
2022/08/21 11:38:26;;;;;;;4.43;2.50;;;25.50;48.60;;;;;;5282960;27;20482;-50
2022/08/21 11:41:28;;;;;;;13.93;3.07;;;25.50;47.40;;;;;;5292538;27;20583;-50
2022/08/21 11:44:37;;;;;;;4.90;2.40;;;25.70;45.60;;;;;;5289458;27;20458;-48
2022/08/21 11:47:54;;;;;;;2.60;2.00;;;25.50;45.30;;;;;;5201623;28;20438;-50
2022/08/21 11:50:28;;;;;;;5.00;3.37;;;25.40;45.00;;;;;;5276638;27;20444;-50
2022/08/21 11:53:11;;;;;;;1.90;1.00;;;25.20;45.00;;;;;;5278643;27;20532;-51
2022/08/21 11:55:48;;;;;;;3.03;1.57;;;25.00;45.50;;;;;;5287744;27;20427;-50
2022/08/21 11:58:35;;;;;;;1.60;1.10;;;25.20;45.10;;;;;;5270732;28;20427;-52
2022/08/21 12:01:35;;;;;;;2.33;0.60;;;25.30;44.60;;;;;;5288395;27;20434;-51
2022/08/21 12:04:16;;;;;;;15.43;3.00;;;25.40;45.00;;;;;;5285062;28;20466;-51
2022/08/21 12:06:49;;;;;;;1.90;1.13;;;25.40;43.40;;;;;;5289226;28;20429;-52
2022/08/21 12:09:25;;;;;;;17.03;2.50;;;25.30;42.00;;;;;;5288715;28;20470;-51
2022/08/21 12:12:29;;;;;;;1.20;1.20;;;25.30;42.70;;;;;;5290627;27;20434;-51
2022/08/21 12:15:16;;;;;;;1.10;1.00;;;25.20;43.80;;;;;;5287055;27;20430;-52
2022/08/21 12:18:04;;;;;;;1.03;0.70;;;25.40;44.60;;;;;;5277463;28;20791;-50
2022/08/21 12:20:34;;;;;;;5.47;3.30;;;25.50;44.30;;;;;;5283406;27;20532;-51
2022/08/21 12:23:08;;;;;;;2.10;2.00;;;25.60;44.50;;;;;;5275578;27;21041;-51
2022/08/21 12:25:47;;;;;;;1.00;0.90;;;25.30;43.50;;;;;;5291926;28;20189;-51
2022/08/21 12:28:23;;;;;;;2.07;1.97;;;25.20;43.90;;;;;;5275372;27;20454;-50
2022/08/21 12:30:54;;;;;;;1.57;1.47;;;25.40;45.10;;;;;;5283157;27;20407;-51
2022/08/21 12:33:40;;;;;;;5.60;1.90;;;25.50;45.00;;;;;;5292756;27;20442;-51
2022/08/21 12:36:15;;;;;;;4.63;4.20;;;25.50;44.40;;;;;;5285880;27;20173;-51
2022/08/21 12:39:00;;;;;;;1.43;1.20;;;25.50;44.50;;;;;;5284395;27;20491;-51
2022/08/21 12:41:46;;;;;;;5.33;1.70;;;25.40;43.60;;;;;;5291795;27;20438;-51
2022/08/21 12:44:28;;;;;;;4.33;1.50;;;25.20;44.40;;;;;;5294612;28;20449;-51
2022/08/21 12:47:06;;;;;;;1.27;1.17;;;25.30;44.70;;;;;;5289414;27;20427;-51
2022/08/21 12:49:56;;;;;;;2.03;1.93;;;25.50;44.90;;;;;;5294668;28;20469;-50
2022/08/21 12:52:36;;;;;;;1.30;1.10;;;25.70;43.80;;;;;;5288257;28;20454;-51
2022/08/21 12:55:15;;;;;;;2.30;1.23;;;25.70;42.80;;;;;;5284883;28;20498;-51
2022/08/21 12:57:46;;;;;;;2.00;0.90;;;25.60;41.90;;;;;;5289497;28;20805;-49
2022/08/21 13:00:22;;;;;;;3.23;1.23;;;25.20;41.60;;;;;;5287193;28;20442;-50
2022/08/21 13:02:54;;;;;;;1.40;1.20;;;25.20;43.70;;;;;;5291931;28;20587;-51
2022/08/21 13:05:32;;;;;;;2.60;1.20;;;25.10;44.20;;;;;;5287301;27;20430;-50
2022/08/21 13:08:06;;;;;;;2.67;1.63;;;25.10;45.10;;;;;;5291090;27;20552;-51
2022/08/21 13:10:39;;;;;;;1.13;1.13;;;25.10;45.00;;;;;;5291362;28;20458;-50
2022/08/21 13:13:19;;;;;;;2.63;1.67;;;25.00;44.70;;;;;;5291386;28;20434;-51
2022/08/21 13:15:58;;;;;;;10.43;4.50;;;24.80;45.00;;;;;;5286623;28;20500;-51
2022/08/21 13:18:32;;;;;;;2.70;1.40;;;24.70;46.10;;;;;;5291667;28;20415;-51
2022/08/21 13:21:13;;;;;;;2.73;2.53;;;24.60;45.70;;;;;;5285645;28;20444;-52
2022/08/21 13:23:44;;;;;;;1.50;1.40;;;24.60;46.40;;;;;;5292223;28;20496;-52
2022/08/21 13:26:20;;;;;;;1.53;1.53;;;24.60;46.10;;;;;;5285117;28;20431;-52
2022/08/21 13:28:51;;;;;;;6.03;2.70;;;24.50;46.20;;;;;;5288587;27;20197;-52
2022/08/21 13:31:28;;;;;;;1.47;1.37;;;24.50;46.80;;;;;;5290469;27;20870;-51